sensor_id;sensor_type;location;lat;lon;timestamp;pressure;altitude;pressure_sealevel;temperature;humidity
47522;BME280;32291;52.010;4.446;2023-12-28T00:00:05;77822.97;;;-144.67;100.00
47522;BME280;32291;52.010;4.446;2023-12-28T00:01:08;77827.25;;;-144.67;100.00
47522;BME280;32291;52.010;4.446;2023-12-28T00:02:15;77810.13;;;-144.67;100.00
47522;BME280;32291;52.010;4.446;2023-12-28T00:03:17;77842.22;;;-144.67;100.00
47522;BME280;32291;52.010;4.446;2023-12-28T00:04:24;77820.84;;;-144.67;100.00
47522;BME280;32291;52.010;4.446;2023-12-28T00:05:26;77820.84;;;-144.67;100.00
47522;BME280;32291;52.010;4.446;2023-12-28T00:06:28;77833.66;;;-144.67;100.00
47522;BME280;32291;52.010;4.446;2023-12-28T00:07:31;77837.97;;;-144.67;100.00
47522;BME280;32291;52.010;4.446;2023-12-28T00:08:38;77835.81;;;-144.67;100.00
47522;BME280;32291;52.010;4.446;2023-12-28T00:09:40;77842.22;;;-144.67;100.00
47522;BME280;32291;52.010;4.446;2023-12-28T00:10:42;77835.81;;;-144.67;100.00
47522;BME280;32291;52.010;4.446;2023-12-28T00:11:49;77842.22;;;-144.67;100.00
47522;BME280;32291;52.010;4.446;2023-12-28T00:12:56;77842.22;;;-144.67;100.00
47522;BME280;32291;52.010;4.446;2023-12-28T00:14:03;77848.66;;;-144.67;100.00
47522;BME280;32291;52.010;4.446;2023-12-28T00:15:10;77842.22;;;-144.67;100.00
47522;BME280;32291;52.010;4.446;2023-12-28T00:16:12;77855.09;;;-144.67;100.00
47522;BME280;32291;52.010;4.446;2023-12-28T00:17:19;77848.66;;;-144.67;100.00
47522;BME280;32291;52.010;4.446;2023-12-28T00:18:26;77859.38;;;-144.67;100.00
47522;BME280;32291;52.010;4.446;2023-12-28T00:19:33;77861.50;;;-144.67;100.00
47522;BME280;32291;52.010;4.446;2023-12-28T00:20:40;77876.50;;;-144.67;100.00
47522;BME280;32291;52.010;4.446;2023-12-28T00:21:42;77867.94;;;-144.67;100.00
47522;BME280;32291;52.010;4.446;2023-12-28T00:22:44;77842.22;;;-144.67;100.00
47522;BME280;32291;52.010;4.446;2023-12-28T00:23:46;77850.81;;;-144.67;100.00
47522;BME280;32291;52.010;4.446;2023-12-28T00:24:54;77848.66;;;-144.67;100.00
47522;BME280;32291;52.010;4.446;2023-12-28T00:26:00;77863.63;;;-144.67;100.00
47522;BME280;32291;52.010;4.446;2023-12-28T00:27:10;77857.22;;;-144.67;100.00
47522;BME280;32291;52.010;4.446;2023-12-28T00:28:17;77842.22;;;-144.67;100.00
47522;BME280;32291;52.010;4.446;2023-12-28T00:29:19;77846.50;;;-144.67;100.00
47522;BME280;32291;52.010;4.446;2023-12-28T00:30:27;77846.50;;;-144.67;100.00
47522;BME280;32291;52.010;4.446;2023-12-28T00:31:29;77850.81;;;-144.67;100.00
47522;BME280;32291;52.010;4.446;2023-12-28T00:32:36;77855.09;;;-144.67;100.00
47522;BME280;32291;52.010;4.446;2023-12-28T00:33:45;77867.94;;;-144.67;100.00
47522;BME280;32291;52.010;4.446;2023-12-28T00:34:52;77876.50;;;-144.67;100.00
47522;BME280;32291;52.010;4.446;2023-12-28T00:35:54;77867.94;;;-144.67;100.00
47522;BME280;32291;52.010;4.446;2023-12-28T00:36:56;77867.94;;;-144.67;100.00
47522;BME280;32291;52.010;4.446;2023-12-28T00:38:03;77863.63;;;-144.67;100.00
47522;BME280;32291;52.010;4.446;2023-12-28T00:39:05;77855.09;;;-144.67;100.00
47522;BME280;32291;52.010;4.446;2023-12-28T00:40:12;77863.63;;;-144.67;100.00
47522;BME280;32291;52.010;4.446;2023-12-28T00:41:19;77850.81;;;-144.67;100.00
47522;BME280;32291;52.010;4.446;2023-12-28T00:42:26;77861.50;;;-144.67;100.00
47522;BME280;32291;52.010;4.446;2023-12-28T00:43:33;77846.50;;;-144.67;100.00
47522;BME280;32291;52.010;4.446;2023-12-28T00:44:40;77846.50;;;-144.67;100.00
47522;BME280;32291;52.010;4.446;2023-12-28T00:45:48;77850.81;;;-144.67;100.00
47522;BME280;32291;52.010;4.446;2023-12-28T00:46:50;77859.38;;;-144.67;100.00
47522;BME280;32291;52.010;4.446;2023-12-28T00:47:53;77885.06;;;-144.67;100.00
47522;BME280;32291;52.010;4.446;2023-12-28T00:49:02;77874.34;;;-144.67;100.00
47522;BME280;32291;52.010;4.446;2023-12-28T00:50:10;77872.22;;;-144.67;100.00
47522;BME280;32291;52.010;4.446;2023-12-28T00:51:16;77857.22;;;-144.67;100.00
47522;BME280;32291;52.010;4.446;2023-12-28T00:52:23;77850.81;;;-144.67;100.00
47522;BME280;32291;52.010;4.446;2023-12-28T00:53:26;77855.09;;;-144.67;100.00
47522;BME280;32291;52.010;4.446;2023-12-28T00:54:35;77846.50;;;-144.67;100.00
47522;BME280;32291;52.010;4.446;2023-12-28T00:55:43;77842.22;;;-144.67;100.00
47522;BME280;32291;52.010;4.446;2023-12-28T00:56:50;77842.22;;;-144.67;100.00
47522;BME280;32291;52.010;4.446;2023-12-28T00:57:57;77850.81;;;-144.67;100.00
47522;BME280;32291;52.010;4.446;2023-12-28T00:58:59;77863.63;;;-144.67;100.00
47522;BME280;32291;52.010;4.446;2023-12-28T01:00:05;77859.38;;;-144.67;100.00
47522;BME280;32291;52.010;4.446;2023-12-28T01:01:12;77872.22;;;-144.67;100.00
47522;BME280;32291;52.010;4.446;2023-12-28T01:02:19;77867.94;;;-144.67;100.00
47522;BME280;32291;52.010;4.446;2023-12-28T01:03:21;77863.63;;;-144.67;100.00
47522;BME280;32291;52.010;4.446;2023-12-28T01:04:28;77846.50;;;-144.67;100.00
47522;BME280;32291;52.010;4.446;2023-12-28T01:05:35;77844.38;;;-144.67;100.00
47522;BME280;32291;52.010;4.446;2023-12-28T01:06:42;77855.09;;;-144.67;100.00
47522;BME280;32291;52.010;4.446;2023-12-28T01:07:51;77837.97;;;-144.67;100.00
47522;BME280;32291;52.010;4.446;2023-12-28T01:08:57;77846.50;;;-144.67;100.00
47522;BME280;32291;52.010;4.446;2023-12-28T01:09:59;77844.38;;;-144.67;100.00
47522;BME280;32291;52.010;4.446;2023-12-28T01:11:02;77855.09;;;-144.67;100.00
47522;BME280;32291;52.010;4.446;2023-12-28T01:12:05;77850.81;;;-144.67;100.00
47522;BME280;32291;52.010;4.446;2023-12-28T01:13:12;77842.22;;;-144.67;100.00
47522;BME280;32291;52.010;4.446;2023-12-28T01:14:14;77859.38;;;-144.67;100.00
47522;BME280;32291;52.010;4.446;2023-12-28T01:15:21;77859.38;;;-144.67;100.00
47522;BME280;32291;52.010;4.446;2023-12-28T01:16:24;77872.22;;;-144.67;100.00
47522;BME280;32291;52.010;4.446;2023-12-28T01:17:31;77863.63;;;-144.67;100.00
47522;BME280;32291;52.010;4.446;2023-12-28T01:18:40;77846.50;;;-144.67;100.00
47522;BME280;32291;52.010;4.446;2023-12-28T01:19:47;77835.81;;;-144.67;100.00
47522;BME280;32291;52.010;4.446;2023-12-28T01:20:54;77848.66;;;-144.67;100.00
47522;BME280;32291;52.010;4.446;2023-12-28T01:22:01;77842.22;;;-144.67;100.00
47522;BME280;32291;52.010;4.446;2023-12-28T01:23:08;77852.94;;;-144.67;100.00
47522;BME280;32291;52.010;4.446;2023-12-28T01:24:15;77852.94;;;-144.67;100.00
47522;BME280;32291;52.010;4.446;2023-12-28T01:25:17;77842.22;;;-144.67;100.00
47522;BME280;32291;52.010;4.446;2023-12-28T01:26:24;77852.94;;;-144.67;100.00
47522;BME280;32291;52.010;4.446;2023-12-28T01:27:31;77872.22;;;-144.67;100.00
47522;BME280;32291;52.010;4.446;2023-12-28T01:28:33;77859.38;;;-144.67;100.00
47522;BME280;32291;52.010;4.446;2023-12-28T01:29:40;77855.09;;;-144.67;100.00
47522;BME280;32291;52.010;4.446;2023-12-28T01:30:47;77859.38;;;-144.67;100.00
47522;BME280;32291;52.010;4.446;2023-12-28T01:31:49;77876.50;;;-144.67;100.00
47522;BME280;32291;52.010;4.446;2023-12-28T01:32:56;77885.06;;;-144.67;100.00
47522;BME280;32291;52.010;4.446;2023-12-28T01:33:59;77876.50;;;-144.67;100.00
47522;BME280;32291;52.010;4.446;2023-12-28T01:35:06;77885.06;;;-144.67;100.00
47522;BME280;32291;52.010;4.446;2023-12-28T01:36:21;77887.19;;;-144.67;100.00
47522;BME280;32291;52.010;4.446;2023-12-28T01:37:28;77895.75;;;-144.67;100.00
47522;BME280;32291;52.010;4.446;2023-12-28T01:38:33;77893.63;;;-144.67;100.00
47522;BME280;32291;52.010;4.446;2023-12-28T01:39:40;77885.06;;;-144.67;100.00
47522;BME280;32291;52.010;4.446;2023-12-28T01:40:47;77867.94;;;-144.67;100.00
47522;BME280;32291;52.010;4.446;2023-12-28T01:41:54;77874.34;;;-144.67;100.00
47522;BME280;32291;52.010;4.446;2023-12-28T01:43:01;77885.06;;;-144.67;100.00
47522;BME280;32291;52.010;4.446;2023-12-28T01:44:08;77876.50;;;-144.67;100.00
47522;BME280;32291;52.010;4.446;2023-12-28T01:45:15;77867.94;;;-144.67;100.00
47522;BME280;32291;52.010;4.446;2023-12-28T01:46:23;77876.50;;;-144.67;100.00
47522;BME280;32291;52.010;4.446;2023-12-28T01:47:26;77876.50;;;-144.67;100.00
47522;BME280;32291;52.010;4.446;2023-12-28T01:48:33;77880.78;;;-144.67;100.00
47522;BME280;32291;52.010;4.446;2023-12-28T01:49:40;77900.03;;;-144.67;100.00
47522;BME280;32291;52.010;4.446;2023-12-28T01:50:48;77885.06;;;-144.67;100.00
47522;BME280;32291;52.010;4.446;2023-12-28T01:51:55;77872.22;;;-144.67;100.00
47522;BME280;32291;52.010;4.446;2023-12-28T01:53:03;77872.22;;;-144.67;100.00
47522;BME280;32291;52.010;4.446;2023-12-28T01:54:05;77893.63;;;-144.67;100.00
47522;BME280;32291;52.010;4.446;2023-12-28T01:55:13;77889.34;;;-144.67;100.00
47522;BME280;32291;52.010;4.446;2023-12-28T01:56:24;77876.50;;;-144.67;100.00
47522;BME280;32291;52.010;4.446;2023-12-28T01:57:27;77885.06;;;-144.67;100.00
47522;BME280;32291;52.010;4.446;2023-12-28T01:58:34;77876.50;;;-144.67;100.00
47522;BME280;32291;52.010;4.446;2023-12-28T01:59:42;77889.34;;;-144.67;100.00
47522;BME280;32291;52.010;4.446;2023-12-28T02:00:50;77878.63;;;-144.67;100.00
47522;BME280;32291;52.010;4.446;2023-12-28T02:01:58;77878.63;;;-144.67;100.00
47522;BME280;32291;52.010;4.446;2023-12-28T02:03:08;77895.75;;;-144.67;100.00
47522;BME280;32291;52.010;4.446;2023-12-28T02:04:11;77889.34;;;-144.67;100.00
47522;BME280;32291;52.010;4.446;2023-12-28T02:05:14;77880.78;;;-144.67;100.00
47522;BME280;32291;52.010;4.446;2023-12-28T02:06:23;77900.03;;;-144.67;100.00
47522;BME280;32291;52.010;4.446;2023-12-28T02:07:27;77906.47;;;-144.67;100.00
47522;BME280;32291;52.010;4.446;2023-12-28T02:08:30;77891.47;;;-144.67;100.00
47522;BME280;32291;52.010;4.446;2023-12-28T02:09:33;77889.34;;;-144.67;100.00
47522;BME280;32291;52.010;4.446;2023-12-28T02:10:40;77891.47;;;-144.67;100.00
47522;BME280;32291;52.010;4.446;2023-12-28T02:11:42;77889.34;;;-144.67;100.00
47522;BME280;32291;52.010;4.446;2023-12-28T02:12:49;77885.06;;;-144.67;100.00
47522;BME280;32291;52.010;4.446;2023-12-28T02:13:56;77900.03;;;-144.67;100.00
47522;BME280;32291;52.010;4.446;2023-12-28T02:14:59;77897.91;;;-144.67;100.00
47522;BME280;32291;52.010;4.446;2023-12-28T02:16:29;77897.91;;;-144.67;100.00
47522;BME280;32291;52.010;4.446;2023-12-28T02:18:01;77893.63;;;-144.67;100.00
47522;BME280;32291;52.010;4.446;2023-12-28T02:19:53;77897.91;;;-144.67;100.00
47522;BME280;32291;52.010;4.446;2023-12-28T02:21:02;77919.31;;;-144.67;100.00
47522;BME280;32291;52.010;4.446;2023-12-28T02:22:08;77897.91;;;-144.67;100.00
47522;BME280;32291;52.010;4.446;2023-12-28T02:23:16;77895.75;;;-144.67;100.00
47522;BME280;32291;52.010;4.446;2023-12-28T02:24:18;77893.63;;;-144.67;100.00
47522;BME280;32291;52.010;4.446;2023-12-28T02:25:20;77910.75;;;-144.67;100.00
47522;BME280;32291;52.010;4.446;2023-12-28T02:26:27;77921.44;;;-144.67;100.00
47522;BME280;32291;52.010;4.446;2023-12-28T02:27:43;77915.03;;;-144.67;100.00
47522;BME280;32291;52.010;4.446;2023-12-28T02:28:53;77906.47;;;-144.67;100.00
47522;BME280;32291;52.010;4.446;2023-12-28T02:30:00;77906.47;;;-144.67;100.00
47522;BME280;32291;52.010;4.446;2023-12-28T02:31:07;77900.03;;;-144.67;100.00
47522;BME280;32291;52.010;4.446;2023-12-28T02:32:28;77902.19;;;-144.67;100.00
47522;BME280;32291;52.010;4.446;2023-12-28T02:33:50;77915.03;;;-144.67;100.00
47522;BME280;32291;52.010;4.446;2023-12-28T02:35:09;77902.19;;;-144.67;100.00
47522;BME280;32291;52.010;4.446;2023-12-28T02:36:23;77902.19;;;-144.67;100.00
47522;BME280;32291;52.010;4.446;2023-12-28T02:37:33;77906.47;;;-144.67;100.00
47522;BME280;32291;52.010;4.446;2023-12-28T02:38:42;77897.91;;;-144.67;100.00
47522;BME280;32291;52.010;4.446;2023-12-28T02:39:48;77904.31;;;-144.67;100.00
47522;BME280;32291;52.010;4.446;2023-12-28T02:40:58;77915.03;;;-144.67;100.00
47522;BME280;32291;52.010;4.446;2023-12-28T02:42:06;77917.16;;;-144.67;100.00
47522;BME280;32291;52.010;4.446;2023-12-28T02:43:09;77910.75;;;-144.67;100.00
47522;BME280;32291;52.010;4.446;2023-12-28T02:44:17;77902.19;;;-144.67;100.00
47522;BME280;32291;52.010;4.446;2023-12-28T02:45:20;77915.03;;;-144.67;100.00
47522;BME280;32291;52.010;4.446;2023-12-28T02:46:26;77923.59;;;-144.67;100.00
47522;BME280;32291;52.010;4.446;2023-12-28T02:47:33;77912.88;;;-144.67;100.00
47522;BME280;32291;52.010;4.446;2023-12-28T02:48:35;77942.84;;;-144.67;100.00
47522;BME280;32291;52.010;4.446;2023-12-28T02:49:42;77921.44;;;-144.67;100.00
47522;BME280;32291;52.010;4.446;2023-12-28T02:50:44;77945.00;;;-144.67;100.00
47522;BME280;32291;52.010;4.446;2023-12-28T02:51:51;77938.56;;;-144.67;100.00
47522;BME280;32291;52.010;4.446;2023-12-28T02:52:59;77923.59;;;-144.67;100.00
47522;BME280;32291;52.010;4.446;2023-12-28T02:54:01;77940.72;;;-144.67;100.00
47522;BME280;32291;52.010;4.446;2023-12-28T02:55:09;77934.28;;;-144.67;100.00
47522;BME280;32291;52.010;4.446;2023-12-28T02:56:16;77932.16;;;-144.67;100.00
47522;BME280;32291;52.010;4.446;2023-12-28T02:57:18;77940.72;;;-144.67;100.00
47522;BME280;32291;52.010;4.446;2023-12-28T02:58:25;77936.44;;;-144.67;100.00
47522;BME280;32291;52.010;4.446;2023-12-28T02:59:31;77923.59;;;-144.67;100.00
47522;BME280;32291;52.010;4.446;2023-12-28T03:00:33;77930.00;;;-144.67;100.00
47522;BME280;32291;52.010;4.446;2023-12-28T03:01:40;77936.44;;;-144.67;100.00
47522;BME280;32291;52.010;4.446;2023-12-28T03:02:47;77917.16;;;-144.67;100.00
47522;BME280;32291;52.010;4.446;2023-12-28T03:03:54;77919.31;;;-144.67;100.00
47522;BME280;32291;52.010;4.446;2023-12-28T03:04:56;77906.47;;;-144.67;100.00
47522;BME280;32291;52.010;4.446;2023-12-28T03:05:58;77917.16;;;-144.67;100.00
47522;BME280;32291;52.010;4.446;2023-12-28T03:07:02;77921.44;;;-144.67;100.00
47522;BME280;32291;52.010;4.446;2023-12-28T03:08:04;77932.16;;;-144.67;100.00
47522;BME280;32291;52.010;4.446;2023-12-28T03:09:07;77917.16;;;-144.67;100.00
47522;BME280;32291;52.010;4.446;2023-12-28T03:10:12;77923.59;;;-144.67;100.00
47522;BME280;32291;52.010;4.446;2023-12-28T03:11:18;77932.16;;;-144.67;100.00
47522;BME280;32291;52.010;4.446;2023-12-28T03:12:29;77927.88;;;-144.67;100.00
47522;BME280;32291;52.010;4.446;2023-12-28T03:13:36;77904.31;;;-144.67;100.00
47522;BME280;32291;52.010;4.446;2023-12-28T03:14:43;77897.91;;;-144.67;100.00
47522;BME280;32291;52.010;4.446;2023-12-28T03:15:50;77908.59;;;-144.67;100.00
47522;BME280;32291;52.010;4.446;2023-12-28T03:16:57;77906.47;;;-144.67;100.00
47522;BME280;32291;52.010;4.446;2023-12-28T03:18:04;77910.75;;;-144.67;100.00
47522;BME280;32291;52.010;4.446;2023-12-28T03:19:11;77897.91;;;-144.67;100.00
47522;BME280;32291;52.010;4.446;2023-12-28T03:20:19;77921.44;;;-144.67;100.00
47522;BME280;32291;52.010;4.446;2023-12-28T03:21:26;77910.75;;;-144.67;100.00
47522;BME280;32291;52.010;4.446;2023-12-28T03:22:33;77923.59;;;-144.67;100.00
47522;BME280;32291;52.010;4.446;2023-12-28T03:23:40;77897.91;;;-144.67;100.00
47522;BME280;32291;52.010;4.446;2023-12-28T03:24:47;77902.19;;;-144.67;100.00
47522;BME280;32291;52.010;4.446;2023-12-28T03:25:54;77906.47;;;-144.67;100.00
47522;BME280;32291;52.010;4.446;2023-12-28T03:27:01;77915.03;;;-144.67;100.00
47522;BME280;32291;52.010;4.446;2023-12-28T03:28:03;77897.91;;;-144.67;100.00
47522;BME280;32291;52.010;4.446;2023-12-28T03:29:10;77923.59;;;-144.67;100.00
47522;BME280;32291;52.010;4.446;2023-12-28T03:30:17;77904.31;;;-144.67;100.00
47522;BME280;32291;52.010;4.446;2023-12-28T03:31:24;77921.44;;;-144.67;100.00
47522;BME280;32291;52.010;4.446;2023-12-28T03:32:31;77925.72;;;-144.67;100.00
47522;BME280;32291;52.010;4.446;2023-12-28T03:33:33;77915.03;;;-144.67;100.00
47522;BME280;32291;52.010;4.446;2023-12-28T03:34:40;77889.34;;;-144.67;100.00
47522;BME280;32291;52.010;4.446;2023-12-28T03:35:47;77897.91;;;-144.67;100.00
47522;BME280;32291;52.010;4.446;2023-12-28T03:36:54;77893.63;;;-144.67;100.00
47522;BME280;32291;52.010;4.446;2023-12-28T03:38:01;77889.34;;;-144.67;100.00
47522;BME280;32291;52.010;4.446;2023-12-28T03:39:09;77893.63;;;-144.67;100.00
47522;BME280;32291;52.010;4.446;2023-12-28T03:40:16;77900.03;;;-144.67;100.00
47522;BME280;32291;52.010;4.446;2023-12-28T03:41:22;77900.03;;;-144.67;100.00
47522;BME280;32291;52.010;4.446;2023-12-28T03:42:29;77908.59;;;-144.67;100.00
47522;BME280;32291;52.010;4.446;2023-12-28T03:43:31;77889.34;;;-144.67;100.00
47522;BME280;32291;52.010;4.446;2023-12-28T03:44:34;77876.50;;;-144.67;100.00
47522;BME280;32291;52.010;4.446;2023-12-28T03:45:36;77872.22;;;-144.67;100.00
47522;BME280;32291;52.010;4.446;2023-12-28T03:46:47;77880.78;;;-144.67;100.00
47522;BME280;32291;52.010;4.446;2023-12-28T03:47:54;77867.94;;;-144.67;100.00
47522;BME280;32291;52.010;4.446;2023-12-28T03:49:01;77893.63;;;-144.67;100.00
47522;BME280;32291;52.010;4.446;2023-12-28T03:50:08;77870.06;;;-144.67;100.00
47522;BME280;32291;52.010;4.446;2023-12-28T03:51:16;77882.91;;;-144.67;100.00
47522;BME280;32291;52.010;4.446;2023-12-28T03:52:26;77861.50;;;-144.67;100.00
47522;BME280;32291;52.010;4.446;2023-12-28T03:53:28;77872.22;;;-144.67;100.00
47522;BME280;32291;52.010;4.446;2023-12-28T03:54:35;77872.22;;;-144.67;100.00
47522;BME280;32291;52.010;4.446;2023-12-28T03:55:42;77876.50;;;-144.67;100.00
47522;BME280;32291;52.010;4.446;2023-12-28T03:56:49;77880.78;;;-144.67;100.00
47522;BME280;32291;52.010;4.446;2023-12-28T03:57:56;77857.22;;;-144.67;100.00
47522;BME280;32291;52.010;4.446;2023-12-28T03:58:58;77848.66;;;-144.67;100.00
47522;BME280;32291;52.010;4.446;2023-12-28T04:00:00;77844.38;;;-144.67;100.00
47522;BME280;32291;52.010;4.446;2023-12-28T04:01:03;77842.22;;;-144.67;100.00
47522;BME280;32291;52.010;4.446;2023-12-28T04:02:10;77863.63;;;-144.67;100.00
47522;BME280;32291;52.010;4.446;2023-12-28T04:03:12;77842.22;;;-144.67;100.00
47522;BME280;32291;52.010;4.446;2023-12-28T04:04:20;77837.97;;;-144.67;100.00
47522;BME280;32291;52.010;4.446;2023-12-28T04:05:27;77833.66;;;-144.67;100.00
47522;BME280;32291;52.010;4.446;2023-12-28T04:06:34;77837.97;;;-144.67;100.00
47522;BME280;32291;52.010;4.446;2023-12-28T04:07:41;77840.09;;;-144.67;100.00
47522;BME280;32291;52.010;4.446;2023-12-28T04:08:48;77848.66;;;-144.67;100.00
47522;BME280;32291;52.010;4.446;2023-12-28T04:09:55;77852.94;;;-144.67;100.00
47522;BME280;32291;52.010;4.446;2023-12-28T04:11:04;77840.09;;;-144.67;100.00
47522;BME280;32291;52.010;4.446;2023-12-28T04:12:06;77855.09;;;-144.67;100.00
47522;BME280;32291;52.010;4.446;2023-12-28T04:13:16;77850.81;;;-144.67;100.00
47522;BME280;32291;52.010;4.446;2023-12-28T04:14:23;77859.38;;;-144.67;100.00
47522;BME280;32291;52.010;4.446;2023-12-28T04:15:30;77857.22;;;-144.67;100.00
47522;BME280;32291;52.010;4.446;2023-12-28T04:16:40;77833.66;;;-144.67;99.78
47522;BME280;32291;52.010;4.446;2023-12-28T04:17:46;77827.25;;;-144.67;99.54
47522;BME280;32291;52.010;4.446;2023-12-28T04:18:49;77855.09;;;-144.67;99.50
47522;BME280;32291;52.010;4.446;2023-12-28T04:19:55;77842.22;;;-144.67;99.40
47522;BME280;32291;52.010;4.446;2023-12-28T04:21:00;77837.97;;;-144.67;99.27
47522;BME280;32291;52.010;4.446;2023-12-28T04:22:02;77814.41;;;-144.67;98.96
47522;BME280;32291;52.010;4.446;2023-12-28T04:23:09;77822.97;;;-144.67;98.76
47522;BME280;32291;52.010;4.446;2023-12-28T04:24:16;77825.09;;;-144.67;99.08
47522;BME280;32291;52.010;4.446;2023-12-28T04:25:18;77833.66;;;-144.67;99.05
47522;BME280;32291;52.010;4.446;2023-12-28T04:26:25;77820.84;;;-144.67;98.69
47522;BME280;32291;52.010;4.446;2023-12-28T04:27:27;77816.53;;;-144.67;98.44
47522;BME280;32291;52.010;4.446;2023-12-28T04:28:34;77816.53;;;-144.67;98.20
47522;BME280;32291;52.010;4.446;2023-12-28T04:29:42;77825.09;;;-144.67;98.25
47522;BME280;32291;52.010;4.446;2023-12-28T04:30:44;77829.38;;;-144.67;98.08
47522;BME280;32291;52.010;4.446;2023-12-28T04:31:51;77844.38;;;-144.67;98.37
47522;BME280;32291;52.010;4.446;2023-12-28T04:32:53;77820.84;;;-144.67;98.19
47522;BME280;32291;52.010;4.446;2023-12-28T04:34:00;77833.66;;;-144.67;98.35
47522;BME280;32291;52.010;4.446;2023-12-28T04:35:10;77822.97;;;-144.67;98.19
47522;BME280;32291;52.010;4.446;2023-12-28T04:36:17;77831.53;;;-144.67;97.93
47522;BME280;32291;52.010;4.446;2023-12-28T04:37:19;77833.66;;;-144.67;98.05
47522;BME280;32291;52.010;4.446;2023-12-28T04:38:21;77850.81;;;-144.67;98.11
47522;BME280;32291;52.010;4.446;2023-12-28T04:39:23;77833.66;;;-144.67;98.01
47522;BME280;32291;52.010;4.446;2023-12-28T04:40:30;77825.09;;;-144.67;97.71
47522;BME280;32291;52.010;4.446;2023-12-28T04:41:37;77850.81;;;-144.67;97.90
47522;BME280;32291;52.010;4.446;2023-12-28T04:42:44;77822.97;;;-144.67;97.56
47522;BME280;32291;52.010;4.446;2023-12-28T04:43:46;77833.66;;;-144.67;97.39
47522;BME280;32291;52.010;4.446;2023-12-28T04:44:56;77822.97;;;-144.67;97.54
47522;BME280;32291;52.010;4.446;2023-12-28T04:46:04;77859.38;;;-144.67;98.00
47522;BME280;32291;52.010;4.446;2023-12-28T04:47:11;77850.81;;;-144.67;97.85
47522;BME280;32291;52.010;4.446;2023-12-28T04:48:13;77833.66;;;-144.67;97.83
47522;BME280;32291;52.010;4.446;2023-12-28T04:49:20;77833.66;;;-144.67;97.33
47522;BME280;32291;52.010;4.446;2023-12-28T04:50:22;77837.97;;;-144.67;97.56
47522;BME280;32291;52.010;4.446;2023-12-28T04:51:24;77842.22;;;-144.67;97.43
47522;BME280;32291;52.010;4.446;2023-12-28T04:52:27;77833.66;;;-144.67;97.00
47522;BME280;32291;52.010;4.446;2023-12-28T04:53:33;77825.09;;;-144.67;96.97
47522;BME280;32291;52.010;4.446;2023-12-28T04:54:41;77807.97;;;-144.67;96.80
47522;BME280;32291;52.010;4.446;2023-12-28T04:55:48;77829.38;;;-144.67;96.81
47522;BME280;32291;52.010;4.446;2023-12-28T04:56:55;77833.66;;;-144.67;97.07
47522;BME280;32291;52.010;4.446;2023-12-28T04:57:57;77861.50;;;-144.67;97.04
47522;BME280;32291;52.010;4.446;2023-12-28T04:59:04;77850.81;;;-144.67;97.20
47522;BME280;32291;52.010;4.446;2023-12-28T05:00:11;77846.50;;;-144.67;96.83
47522;BME280;32291;52.010;4.446;2023-12-28T05:01:18;77842.22;;;-144.67;96.78
47522;BME280;32291;52.010;4.446;2023-12-28T05:02:20;77837.97;;;-144.67;96.56
47522;BME280;32291;52.010;4.446;2023-12-28T05:03:27;77848.66;;;-144.67;96.45
47522;BME280;32291;52.010;4.446;2023-12-28T05:04:40;77859.38;;;-144.67;96.64
47522;BME280;32291;52.010;4.446;2023-12-28T05:05:42;77831.53;;;-144.67;96.44
47522;BME280;32291;52.010;4.446;2023-12-28T05:06:44;77842.22;;;-144.67;96.25
47522;BME280;32291;52.010;4.446;2023-12-28T05:07:46;77852.94;;;-144.67;96.48
47522;BME280;32291;52.010;4.446;2023-12-28T05:08:54;77840.09;;;-144.67;96.36
47522;BME280;32291;52.010;4.446;2023-12-28T05:10:01;77831.53;;;-144.67;96.22
47522;BME280;32291;52.010;4.446;2023-12-28T05:11:08;77829.38;;;-144.67;96.29
47522;BME280;32291;52.010;4.446;2023-12-28T05:12:15;77829.38;;;-144.67;96.21
47522;BME280;32291;52.010;4.446;2023-12-28T05:13:21;77840.09;;;-144.67;96.19
47522;BME280;32291;52.010;4.446;2023-12-28T05:14:23;77840.09;;;-144.67;96.42
47522;BME280;32291;52.010;4.446;2023-12-28T05:15:30;77846.50;;;-144.67;96.58
47522;BME280;32291;52.010;4.446;2023-12-28T05:16:32;77842.22;;;-144.67;96.21
47522;BME280;32291;52.010;4.446;2023-12-28T05:17:39;77850.81;;;-144.67;96.26
47522;BME280;32291;52.010;4.446;2023-12-28T05:18:47;77870.06;;;-144.67;96.77
47522;BME280;32291;52.010;4.446;2023-12-28T05:19:54;77859.38;;;-144.67;96.51
47522;BME280;32291;52.010;4.446;2023-12-28T05:21:05;77837.97;;;-144.67;96.15
47522;BME280;32291;52.010;4.446;2023-12-28T05:22:12;77835.81;;;-144.67;95.95
47522;BME280;32291;52.010;4.446;2023-12-28T05:23:19;77831.53;;;-144.67;95.70
47522;BME280;32291;52.010;4.446;2023-12-28T05:24:21;77812.25;;;-144.67;95.36
47522;BME280;32291;52.010;4.446;2023-12-28T05:25:24;77837.97;;;-144.67;95.43
47522;BME280;32291;52.010;4.446;2023-12-28T05:26:31;77844.38;;;-144.67;95.88
47522;BME280;32291;52.010;4.446;2023-12-28T05:27:38;77831.53;;;-144.67;95.75
47522;BME280;32291;52.010;4.446;2023-12-28T05:28:40;77835.81;;;-144.67;95.59
47522;BME280;32291;52.010;4.446;2023-12-28T05:29:47;77865.78;;;-144.67;95.78
47522;BME280;32291;52.010;4.446;2023-12-28T05:30:49;77855.09;;;-144.67;95.77
47522;BME280;32291;52.010;4.446;2023-12-28T05:31:51;77842.22;;;-144.67;95.70
47522;BME280;32291;52.010;4.446;2023-12-28T05:32:54;77807.97;;;-144.67;95.12
47522;BME280;32291;52.010;4.446;2023-12-28T05:34:01;77846.50;;;-144.67;95.16
47522;BME280;32291;52.010;4.446;2023-12-28T05:35:04;77850.81;;;-144.67;95.36
47522;BME280;32291;52.010;4.446;2023-12-28T05:36:07;77818.69;;;-144.67;95.14
47522;BME280;32291;52.010;4.446;2023-12-28T05:37:10;77825.09;;;-144.67;95.02
47522;BME280;32291;52.010;4.446;2023-12-28T05:38:12;77816.53;;;-144.67;94.70